sensor_id;sensor_type;location;lat;lon;timestamp;P1;durP1;ratioP1;P2;durP2;ratioP2
3379;SDS011;1703;51.964;7.642;2022-07-29T00:01:15;5.80;;;1.23;;
3379;SDS011;1703;51.964;7.642;2022-07-29T00:03:42;5.70;;;1.20;;
3379;SDS011;1703;51.964;7.642;2022-07-29T00:06:10;4.80;;;1.47;;
3379;SDS011;1703;51.964;7.642;2022-07-29T00:08:37;3.60;;;1.30;;
3379;SDS011;1703;51.964;7.642;2022-07-29T00:11:04;4.07;;;1.47;;
3379;SDS011;1703;51.964;7.642;2022-07-29T00:13:30;2.00;;;1.27;;
3379;SDS011;1703;51.964;7.642;2022-07-29T00:15:57;3.33;;;1.20;;
3379;SDS011;1703;51.964;7.642;2022-07-29T00:18:24;3.37;;;1.30;;
3379;SDS011;1703;51.964;7.642;2022-07-29T00:20:51;4.60;;;1.37;;
3379;SDS011;1703;51.964;7.642;2022-07-29T00:23:19;2.10;;;1.50;;
3379;SDS011;1703;51.964;7.642;2022-07-29T00:25:46;2.90;;;1.80;;
3379;SDS011;1703;51.964;7.642;2022-07-29T00:28:12;2.90;;;1.43;;
3379;SDS011;1703;51.964;7.642;2022-07-29T00:30:39;2.20;;;1.30;;
3379;SDS011;1703;51.964;7.642;2022-07-29T00:33:08;4.30;;;1.23;;
3379;SDS011;1703;51.964;7.642;2022-07-29T00:35:34;3.33;;;1.23;;
3379;SDS011;1703;51.964;7.642;2022-07-29T00:38:09;3.40;;;1.37;;
3379;SDS011;1703;51.964;7.642;2022-07-29T00:40:38;1.63;;;1.53;;
3379;SDS011;1703;51.964;7.642;2022-07-29T00:43:05;2.87;;;1.13;;
3379;SDS011;1703;51.964;7.642;2022-07-29T00:45:32;2.03;;;1.13;;
3379;SDS011;1703;51.964;7.642;2022-07-29T00:47:59;3.83;;;1.37;;
3379;SDS011;1703;51.964;7.642;2022-07-29T00:50:26;8.93;;;1.73;;
3379;SDS011;1703;51.964;7.642;2022-07-29T00:52:53;3.00;;;1.57;;
3379;SDS011;1703;51.964;7.642;2022-07-29T00:55:20;6.30;;;4.47;;
3379;SDS011;1703;51.964;7.642;2022-07-29T00:57:48;3.43;;;1.40;;
3379;SDS011;1703;51.964;7.642;2022-07-29T01:00:17;1.53;;;1.23;;
3379;SDS011;1703;51.964;7.642;2022-07-29T01:02:45;2.47;;;1.37;;
3379;SDS011;1703;51.964;7.642;2022-07-29T01:05:13;3.03;;;1.33;;
3379;SDS011;1703;51.964;7.642;2022-07-29T01:07:42;1.73;;;1.47;;
3379;SDS011;1703;51.964;7.642;2022-07-29T01:10:10;4.07;;;1.53;;
3379;SDS011;1703;51.964;7.642;2022-07-29T01:12:39;2.33;;;1.47;;
3379;SDS011;1703;51.964;7.642;2022-07-29T01:15:08;3.10;;;1.53;;
3379;SDS011;1703;51.964;7.642;2022-07-29T01:17:36;1.53;;;1.10;;
3379;SDS011;1703;51.964;7.642;2022-07-29T01:20:08;1.63;;;1.43;;
3379;SDS011;1703;51.964;7.642;2022-07-29T01:22:49;2.47;;;1.30;;
3379;SDS011;1703;51.964;7.642;2022-07-29T01:25:32;6.20;;;1.70;;
3379;SDS011;1703;51.964;7.642;2022-07-29T01:28:45;1.93;;;0.90;;
3379;SDS011;1703;51.964;7.642;2022-07-29T01:31:19;3.30;;;1.53;;
3379;SDS011;1703;51.964;7.642;2022-07-29T01:33:50;2.63;;;2.43;;
3379;SDS011;1703;51.964;7.642;2022-07-29T01:36:32;1.60;;;1.20;;
3379;SDS011;1703;51.964;7.642;2022-07-29T01:39:04;4.17;;;1.40;;
3379;SDS011;1703;51.964;7.642;2022-07-29T01:41:34;1.70;;;1.30;;
3379;SDS011;1703;51.964;7.642;2022-07-29T01:44:08;4.53;;;1.70;;
3379;SDS011;1703;51.964;7.642;2022-07-29T01:46:40;2.83;;;1.60;;
3379;SDS011;1703;51.964;7.642;2022-07-29T01:49:13;5.13;;;1.70;;
3379;SDS011;1703;51.964;7.642;2022-07-29T01:51:43;2.40;;;1.50;;
3379;SDS011;1703;51.964;7.642;2022-07-29T01:54:15;8.90;;;1.37;;
3379;SDS011;1703;51.964;7.642;2022-07-29T01:56:47;4.10;;;1.63;;
3379;SDS011;1703;51.964;7.642;2022-07-29T01:59:18;1.33;;;1.23;;
3379;SDS011;1703;51.964;7.642;2022-07-29T02:01:46;5.23;;;1.80;;
3379;SDS011;1703;51.964;7.642;2022-07-29T02:04:16;2.67;;;1.67;;
3379;SDS011;1703;51.964;7.642;2022-07-29T02:06:45;3.50;;;1.50;;
3379;SDS011;1703;51.964;7.642;2022-07-29T02:09:15;2.00;;;1.67;;
3379;SDS011;1703;51.964;7.642;2022-07-29T02:11:44;2.17;;;1.43;;
3379;SDS011;1703;51.964;7.642;2022-07-29T02:14:15;2.67;;;1.70;;
3379;SDS011;1703;51.964;7.642;2022-07-29T02:16:47;2.23;;;1.97;;
3379;SDS011;1703;51.964;7.642;2022-07-29T02:19:15;3.70;;;1.40;;
3379;SDS011;1703;51.964;7.642;2022-07-29T02:21:45;2.07;;;1.50;;
3379;SDS011;1703;51.964;7.642;2022-07-29T02:24:13;4.13;;;2.30;;
3379;SDS011;1703;51.964;7.642;2022-07-29T02:26:42;6.67;;;2.07;;
3379;SDS011;1703;51.964;7.642;2022-07-29T02:29:10;1.80;;;1.20;;
3379;SDS011;1703;51.964;7.642;2022-07-29T02:31:42;1.83;;;1.73;;
3379;SDS011;1703;51.964;7.642;2022-07-29T02:34:12;2.13;;;1.37;;
3379;SDS011;1703;51.964;7.642;2022-07-29T02:36:40;5.63;;;1.50;;
3379;SDS011;1703;51.964;7.642;2022-07-29T02:39:09;3.83;;;1.23;;
3379;SDS011;1703;51.964;7.642;2022-07-29T02:41:40;5.03;;;1.57;;
3379;SDS011;1703;51.964;7.642;2022-07-29T02:44:11;4.80;;;1.20;;
3379;SDS011;1703;51.964;7.642;2022-07-29T02:46:42;4.13;;;1.60;;
3379;SDS011;1703;51.964;7.642;2022-07-29T02:49:15;1.60;;;1.10;;
3379;SDS011;1703;51.964;7.642;2022-07-29T02:51:46;2.23;;;1.23;;
3379;SDS011;1703;51.964;7.642;2022-07-29T02:54:21;2.40;;;1.60;;
3379;SDS011;1703;51.964;7.642;2022-07-29T02:56:53;1.60;;;1.13;;
3379;SDS011;1703;51.964;7.642;2022-07-29T02:59:23;4.50;;;1.53;;
3379;SDS011;1703;51.964;7.642;2022-07-29T03:01:55;3.30;;;1.30;;
3379;SDS011;1703;51.964;7.642;2022-07-29T03:04:24;5.40;;;2.10;;
3379;SDS011;1703;51.964;7.642;2022-07-29T03:06:54;2.77;;;1.50;;
3379;SDS011;1703;51.964;7.642;2022-07-29T03:09:24;3.60;;;1.43;;
3379;SDS011;1703;51.964;7.642;2022-07-29T03:11:52;2.37;;;1.33;;
3379;SDS011;1703;51.964;7.642;2022-07-29T03:14:19;2.40;;;1.60;;
3379;SDS011;1703;51.964;7.642;2022-07-29T03:16:48;1.80;;;1.70;;
3379;SDS011;1703;51.964;7.642;2022-07-29T03:19:17;1.97;;;1.67;;
3379;SDS011;1703;51.964;7.642;2022-07-29T03:21:45;3.00;;;1.40;;
3379;SDS011;1703;51.964;7.642;2022-07-29T03:24:23;3.00;;;1.50;;
3379;SDS011;1703;51.964;7.642;2022-07-29T03:26:54;3.33;;;1.63;;
3379;SDS011;1703;51.964;7.642;2022-07-29T03:29:22;3.30;;;1.73;;
3379;SDS011;1703;51.964;7.642;2022-07-29T03:31:49;6.40;;;1.60;;
3379;SDS011;1703;51.964;7.642;2022-07-29T03:34:17;2.93;;;1.70;;
3379;SDS011;1703;51.964;7.642;2022-07-29T03:36:44;1.83;;;1.73;;
3379;SDS011;1703;51.964;7.642;2022-07-29T03:39:11;1.20;;;1.10;;
3379;SDS011;1703;51.964;7.642;2022-07-29T03:41:41;6.20;;;1.50;;
3379;SDS011;1703;51.964;7.642;2022-07-29T03:44:11;5.20;;;1.60;;
3379;SDS011;1703;51.964;7.642;2022-07-29T03:46:41;3.40;;;1.63;;
3379;SDS011;1703;51.964;7.642;2022-07-29T03:49:09;3.23;;;1.57;;
3379;SDS011;1703;51.964;7.642;2022-07-29T03:51:41;2.13;;;1.53;;
3379;SDS011;1703;51.964;7.642;2022-07-29T03:54:09;2.30;;;1.40;;
3379;SDS011;1703;51.964;7.642;2022-07-29T03:56:37;2.97;;;1.40;;
3379;SDS011;1703;51.964;7.642;2022-07-29T03:59:06;2.37;;;1.77;;
3379;SDS011;1703;51.964;7.642;2022-07-29T04:01:34;1.50;;;1.30;;
3379;SDS011;1703;51.964;7.642;2022-07-29T04:04:02;4.17;;;1.90;;
3379;SDS011;1703;51.964;7.642;2022-07-29T04:06:36;5.93;;;1.43;;
3379;SDS011;1703;51.964;7.642;2022-07-29T04:09:06;6.77;;;1.53;;
3379;SDS011;1703;51.964;7.642;2022-07-29T04:11:33;10.07;;;1.67;;
3379;SDS011;1703;51.964;7.642;2022-07-29T04:14:01;5.90;;;1.80;;
3379;SDS011;1703;51.964;7.642;2022-07-29T04:16:28;3.00;;;2.00;;
3379;SDS011;1703;51.964;7.642;2022-07-29T04:18:55;3.63;;;1.40;;
3379;SDS011;1703;51.964;7.642;2022-07-29T04:21:21;3.17;;;1.40;;
3379;SDS011;1703;51.964;7.642;2022-07-29T04:23:48;4.00;;;1.80;;
3379;SDS011;1703;51.964;7.642;2022-07-29T04:26:17;2.27;;;1.17;;
3379;SDS011;1703;51.964;7.642;2022-07-29T04:28:45;2.93;;;1.67;;
3379;SDS011;1703;51.964;7.642;2022-07-29T04:31:12;3.53;;;1.37;;
3379;SDS011;1703;51.964;7.642;2022-07-29T04:33:39;1.87;;;1.53;;
3379;SDS011;1703;51.964;7.642;2022-07-29T04:36:06;4.40;;;1.80;;
3379;SDS011;1703;51.964;7.642;2022-07-29T04:38:33;2.60;;;1.47;;
3379;SDS011;1703;51.964;7.642;2022-07-29T04:40:59;7.90;;;1.73;;
3379;SDS011;1703;51.964;7.642;2022-07-29T04:43:28;5.00;;;1.77;;
3379;SDS011;1703;51.964;7.642;2022-07-29T04:45:54;2.70;;;1.60;;
3379;SDS011;1703;51.964;7.642;2022-07-29T04:48:21;5.47;;;1.50;;
3379;SDS011;1703;51.964;7.642;2022-07-29T04:50:48;2.27;;;1.40;;
3379;SDS011;1703;51.964;7.642;2022-07-29T04:53:15;3.43;;;1.57;;
3379;SDS011;1703;51.964;7.642;2022-07-29T04:55:41;3.43;;;1.83;;
3379;SDS011;1703;51.964;7.642;2022-07-29T04:58:08;5.80;;;1.67;;
3379;SDS011;1703;51.964;7.642;2022-07-29T05:00:37;2.50;;;1.90;;
3379;SDS011;1703;51.964;7.642;2022-07-29T05:03:03;5.30;;;2.13;;
3379;SDS011;1703;51.964;7.642;2022-07-29T05:05:31;3.93;;;1.97;;
3379;SDS011;1703;51.964;7.642;2022-07-29T05:07:58;5.00;;;1.97;;
3379;SDS011;1703;51.964;7.642;2022-07-29T05:10:25;2.90;;;2.00;;
3379;SDS011;1703;51.964;7.642;2022-07-29T05:12:53;3.00;;;1.50;;
3379;SDS011;1703;51.964;7.642;2022-07-29T05:15:19;5.80;;;1.40;;
3379;SDS011;1703;51.964;7.642;2022-07-29T05:17:48;1.60;;;1.43;;
3379;SDS011;1703;51.964;7.642;2022-07-29T05:20:14;4.50;;;2.60;;
3379;SDS011;1703;51.964;7.642;2022-07-29T05:22:41;4.57;;;1.70;;
3379;SDS011;1703;51.964;7.642;2022-07-29T05:25:08;2.20;;;1.23;;
3379;SDS011;1703;51.964;7.642;2022-07-29T05:27:35;4.37;;;1.73;;
3379;SDS011;1703;51.964;7.642;2022-07-29T05:30:02;3.47;;;1.53;;
3379;SDS011;1703;51.964;7.642;2022-07-29T05:32:30;9.00;;;1.40;;
3379;SDS011;1703;51.964;7.642;2022-07-29T05:34:58;2.07;;;1.47;;
3379;SDS011;1703;51.964;7.642;2022-07-29T05:37:25;1.33;;;1.20;;
3379;SDS011;1703;51.964;7.642;2022-07-29T05:39:51;7.40;;;1.47;;
3379;SDS011;1703;51.964;7.642;2022-07-29T05:42:18;1.60;;;1.27;;
3379;SDS011;1703;51.964;7.642;2022-07-29T05:44:45;8.13;;;2.10;;
3379;SDS011;1703;51.964;7.642;2022-07-29T05:47:12;4.90;;;1.50;;
3379;SDS011;1703;51.964;7.642;2022-07-29T05:49:39;6.57;;;2.20;;
3379;SDS011;1703;51.964;7.642;2022-07-29T05:52:07;1.20;;;1.10;;
3379;SDS011;1703;51.964;7.642;2022-07-29T05:54:34;3.23;;;2.10;;
3379;SDS011;1703;51.964;7.642;2022-07-29T05:57:01;3.00;;;1.93;;
3379;SDS011;1703;51.964;7.642;2022-07-29T05:59:28;8.00;;;2.00;;
3379;SDS011;1703;51.964;7.642;2022-07-29T06:01:54;3.30;;;1.87;;
3379;SDS011;1703;51.964;7.642;2022-07-29T06:04:21;4.30;;;1.80;;
3379;SDS011;1703;51.964;7.642;2022-07-29T06:06:48;3.10;;;1.50;;
3379;SDS011;1703;51.964;7.642;2022-07-29T06:09:16;3.10;;;1.60;;
3379;SDS011;1703;51.964;7.642;2022-07-29T06:11:43;3.80;;;2.43;;
3379;SDS011;1703;51.964;7.642;2022-07-29T06:14:10;2.13;;;1.80;;
3379;SDS011;1703;51.964;7.642;2022-07-29T06:16:37;2.50;;;1.73;;
3379;SDS011;1703;51.964;7.642;2022-07-29T06:19:04;3.90;;;1.80;;
3379;SDS011;1703;51.964;7.642;2022-07-29T06:21:31;3.43;;;1.80;;
3379;SDS011;1703;51.964;7.642;2022-07-29T06:23:58;2.20;;;1.60;;
3379;SDS011;1703;51.964;7.642;2022-07-29T06:26:26;2.57;;;2.03;;
3379;SDS011;1703;51.964;7.642;2022-07-29T06:28:53;2.73;;;1.80;;
3379;SDS011;1703;51.964;7.642;2022-07-29T06:31:20;12.53;;;1.97;;
3379;SDS011;1703;51.964;7.642;2022-07-29T06:33:47;4.03;;;1.80;;
3379;SDS011;1703;51.964;7.642;2022-07-29T06:36:14;2.23;;;1.53;;
3379;SDS011;1703;51.964;7.642;2022-07-29T06:38:40;3.13;;;1.30;;
3379;SDS011;1703;51.964;7.642;2022-07-29T06:41:08;5.70;;;1.97;;
3379;SDS011;1703;51.964;7.642;2022-07-29T06:46:54;4.47;;;1.77;;
3379;SDS011;1703;51.964;7.642;2022-07-29T06:49:20;8.00;;;1.90;;
3379;SDS011;1703;51.964;7.642;2022-07-29T06:51:48;2.13;;;1.73;;
3379;SDS011;1703;51.964;7.642;2022-07-29T06:54:15;8.63;;;1.60;;
3379;SDS011;1703;51.964;7.642;2022-07-29T06:56:42;5.80;;;2.13;;
3379;SDS011;1703;51.964;7.642;2022-07-29T06:59:09;2.87;;;1.90;;
3379;SDS011;1703;51.964;7.642;2022-07-29T07:01:37;5.13;;;1.80;;
3379;SDS011;1703;51.964;7.642;2022-07-29T07:04:07;2.33;;;1.83;;
3379;SDS011;1703;51.964;7.642;2022-07-29T07:06:36;2.43;;;1.73;;
3379;SDS011;1703;51.964;7.642;2022-07-29T07:09:03;7.50;;;1.77;;
3379;SDS011;1703;51.964;7.642;2022-07-29T07:11:30;2.17;;;1.87;;
3379;SDS011;1703;51.964;7.642;2022-07-29T07:13:57;3.50;;;1.70;;
3379;SDS011;1703;51.964;7.642;2022-07-29T07:16:24;4.43;;;2.00;;
3379;SDS011;1703;51.964;7.642;2022-07-29T07:18:52;9.27;;;3.90;;
3379;SDS011;1703;51.964;7.642;2022-07-29T07:21:20;2.13;;;1.80;;
3379;SDS011;1703;51.964;7.642;2022-07-29T07:23:47;6.57;;;2.37;;
3379;SDS011;1703;51.964;7.642;2022-07-29T07:26:14;13.30;;;2.70;;
3379;SDS011;1703;51.964;7.642;2022-07-29T07:28:40;3.17;;;2.07;;
3379;SDS011;1703;51.964;7.642;2022-07-29T07:31:07;2.27;;;2.07;;
3379;SDS011;1703;51.964;7.642;2022-07-29T07:33:34;5.57;;;2.13;;
3379;SDS011;1703;51.964;7.642;2022-07-29T07:36:01;4.00;;;2.20;;
3379;SDS011;1703;51.964;7.642;2022-07-29T07:38:29;4.40;;;2.43;;
3379;SDS011;1703;51.964;7.642;2022-07-29T07:40:56;14.80;;;2.53;;
3379;SDS011;1703;51.964;7.642;2022-07-29T07:43:23;12.33;;;2.47;;
3379;SDS011;1703;51.964;7.642;2022-07-29T07:45:50;2.37;;;1.60;;
3379;SDS011;1703;51.964;7.642;2022-07-29T07:48:17;6.27;;;2.23;;
3379;SDS011;1703;51.964;7.642;2022-07-29T07:50:44;8.30;;;2.17;;
3379;SDS011;1703;51.964;7.642;2022-07-29T07:53:11;4.03;;;2.00;;
3379;SDS011;1703;51.964;7.642;2022-07-29T07:55:41;3.00;;;2.10;;
3379;SDS011;1703;51.964;7.642;2022-07-29T07:58:09;5.43;;;2.17;;
3379;SDS011;1703;51.964;7.642;2022-07-29T08:00:36;9.03;;;2.30;;
3379;SDS011;1703;51.964;7.642;2022-07-29T08:03:03;6.23;;;2.03;;
3379;SDS011;1703;51.964;7.642;2022-07-29T08:05:30;3.37;;;1.77;;
3379;SDS011;1703;51.964;7.642;2022-07-29T08:07:57;4.30;;;2.37;;
3379;SDS011;1703;51.964;7.642;2022-07-29T08:10:24;5.03;;;1.97;;
3379;SDS011;1703;51.964;7.642;2022-07-29T08:13:09;2.90;;;1.93;;
3379;SDS011;1703;51.964;7.642;2022-07-29T08:15:38;4.37;;;2.40;;
3379;SDS011;1703;51.964;7.642;2022-07-29T08:18:06;4.20;;;1.70;;
3379;SDS011;1703;51.964;7.642;2022-07-29T08:20:33;2.20;;;1.70;;
3379;SDS011;1703;51.964;7.642;2022-07-29T08:23:00;3.67;;;2.63;;
3379;SDS011;1703;51.964;7.642;2022-07-29T08:25:27;8.60;;;2.13;;
3379;SDS011;1703;51.964;7.642;2022-07-29T08:27:54;5.00;;;2.03;;
3379;SDS011;1703;51.964;7.642;2022-07-29T08:30:22;3.13;;;1.80;;
3379;SDS011;1703;51.964;7.642;2022-07-29T08:32:50;4.63;;;2.03;;
3379;SDS011;1703;51.964;7.642;2022-07-29T08:35:18;5.17;;;1.93;;
3379;SDS011;1703;51.964;7.642;2022-07-29T08:37:45;7.77;;;3.27;;
3379;SDS011;1703;51.964;7.642;2022-07-29T08:40:12;6.50;;;2.13;;
3379;SDS011;1703;51.964;7.642;2022-07-29T08:42:39;3.90;;;2.13;;
3379;SDS011;1703;51.964;7.642;2022-07-29T08:45:06;7.50;;;2.33;;
3379;SDS011;1703;51.964;7.642;2022-07-29T08:47:35;4.00;;;2.70;;
3379;SDS011;1703;51.964;7.642;2022-07-29T08:50:05;4.17;;;2.30;;
3379;SDS011;1703;51.964;7.642;2022-07-29T08:52:33;5.60;;;1.70;;
3379;SDS011;1703;51.964;7.642;2022-07-29T08:55:02;13.73;;;2.07;;
3379;SDS011;1703;51.964;7.642;2022-07-29T08:57:30;15.70;;;2.57;;
3379;SDS011;1703;51.964;7.642;2022-07-29T08:59:59;7.70;;;2.33;;
3379;SDS011;1703;51.964;7.642;2022-07-29T09:02:27;4.77;;;2.00;;
3379;SDS011;1703;51.964;7.642;2022-07-29T09:04:57;2.70;;;1.63;;
3379;SDS011;1703;51.964;7.642;2022-07-29T09:07:27;2.17;;;1.90;;
3379;SDS011;1703;51.964;7.642;2022-07-29T09:09:54;4.43;;;2.20;;
3379;SDS011;1703;51.964;7.642;2022-07-29T09:12:21;3.00;;;1.97;;
3379;SDS011;1703;51.964;7.642;2022-07-29T09:14:50;7.13;;;2.30;;
3379;SDS011;1703;51.964;7.642;2022-07-29T09:17:17;2.50;;;1.93;;
3379;SDS011;1703;51.964;7.642;2022-07-29T09:19:44;3.17;;;1.90;;
3379;SDS011;1703;51.964;7.642;2022-07-29T09:22:13;3.70;;;1.93;;
3379;SDS011;1703;51.964;7.642;2022-07-29T09:24:55;4.13;;;1.37;;
3379;SDS011;1703;51.964;7.642;2022-07-29T09:27:23;5.30;;;3.43;;
3379;SDS011;1703;51.964;7.642;2022-07-29T09:29:57;2.80;;;2.50;;
3379;SDS011;1703;51.964;7.642;2022-07-29T09:32:25;3.47;;;1.97;;
3379;SDS011;1703;51.964;7.642;2022-07-29T09:37:42;6.43;;;3.53;;
3379;SDS011;1703;51.964;7.642;2022-07-29T09:40:13;4.10;;;2.43;;
3379;SDS011;1703;51.964;7.642;2022-07-29T09:42:41;7.03;;;5.40;;
3379;SDS011;1703;51.964;7.642;2022-07-29T09:45:09;8.30;;;5.10;;
3379;SDS011;1703;51.964;7.642;2022-07-29T09:47:43;10.43;;;2.83;;
3379;SDS011;1703;51.964;7.642;2022-07-29T09:50:12;5.00;;;2.70;;
3379;SDS011;1703;51.964;7.642;2022-07-29T09:52:48;4.23;;;1.60;;
3379;SDS011;1703;51.964;7.642;2022-07-29T09:55:15;3.07;;;1.70;;
3379;SDS011;1703;51.964;7.642;2022-07-29T09:57:44;8.63;;;2.13;;
3379;SDS011;1703;51.964;7.642;2022-07-29T10:00:12;3.93;;;3.10;;
3379;SDS011;1703;51.964;7.642;2022-07-29T10:02:43;7.27;;;2.03;;
3379;SDS011;1703;51.964;7.642;2022-07-29T10:05:18;9.60;;;2.10;;
3379;SDS011;1703;51.964;7.642;2022-07-29T10:07:48;4.97;;;2.30;;
3379;SDS011;1703;51.964;7.642;2022-07-29T10:10:20;5.93;;;1.90;;
3379;SDS011;1703;51.964;7.642;2022-07-29T10:12:48;2.90;;;1.60;;
3379;SDS011;1703;51.964;7.642;2022-07-29T10:15:17;9.07;;;2.80;;
3379;SDS011;1703;51.964;7.642;2022-07-29T10:17:45;6.10;;;2.30;;
3379;SDS011;1703;51.964;7.642;2022-07-29T10:20:13;5.53;;;2.40;;
3379;SDS011;1703;51.964;7.642;2022-07-29T10:22:40;5.53;;;2.37;;
3379;SDS011;1703;51.964;7.642;2022-07-29T10:25:10;5.37;;;2.47;;
3379;SDS011;1703;51.964;7.642;2022-07-29T10:27:37;3.20;;;2.90;;
3379;SDS011;1703;51.964;7.642;2022-07-29T10:30:05;6.20;;;2.40;;
3379;SDS011;1703;51.964;7.642;2022-07-29T10:32:35;5.07;;;2.50;;
3379;SDS011;1703;51.964;7.642;2022-07-29T10:35:16;5.53;;;3.53;;
3379;SDS011;1703;51.964;7.642;2022-07-29T10:37:52;5.53;;;2.70;;
3379;SDS011;1703;51.964;7.642;2022-07-29T10:40:35;5.90;;;2.03;;
3379;SDS011;1703;51.964;7.642;2022-07-29T10:43:28;5.33;;;2.57;;
3379;SDS011;1703;51.964;7.642;2022-07-29T10:45:59;3.83;;;2.13;;
3379;SDS011;1703;51.964;7.642;2022-07-29T10:48:26;6.73;;;3.53;;
3379;SDS011;1703;51.964;7.642;2022-07-29T10:50:58;4.60;;;2.03;;
3379;SDS011;1703;51.964;7.642;2022-07-29T10:53:46;12.17;;;3.10;;
3379;SDS011;1703;51.964;7.642;2022-07-29T10:56:25;8.63;;;3.10;;
3379;SDS011;1703;51.964;7.642;2022-07-29T11:01:49;4.63;;;2.83;;
3379;SDS011;1703;51.964;7.642;2022-07-29T11:04:17;4.00;;;2.70;;
3379;SDS011;1703;51.964;7.642;2022-07-29T11:07:21;6.27;;;2.93;;
3379;SDS011;1703;51.964;7.642;2022-07-29T11:12:47;7.40;;;2.83;;
3379;SDS011;1703;51.964;7.642;2022-07-29T11:15:16;5.30;;;3.00;;
3379;SDS011;1703;51.964;7.642;2022-07-29T11:18:07;3.83;;;2.57;;
3379;SDS011;1703;51.964;7.642;2022-07-29T11:20:36;6.33;;;3.37;;
3379;SDS011;1703;51.964;7.642;2022-07-29T11:28:48;10.53;;;3.00;;
3379;SDS011;1703;51.964;7.642;2022-07-29T11:31:19;7.00;;;2.70;;
3379;SDS011;1703;51.964;7.642;2022-07-29T11:34:10;10.90;;;3.40;;
3379;SDS011;1703;51.964;7.642;2022-07-29T11:39:41;4.13;;;2.83;;
3379;SDS011;1703;51.964;7.642;2022-07-29T11:45:23;4.20;;;2.43;;
3379;SDS011;1703;51.964;7.642;2022-07-29T11:47:57;7.33;;;3.20;;
3379;SDS011;1703;51.964;7.642;2022-07-29T11:50:29;6.87;;;3.40;;
3379;SDS011;1703;51.964;7.642;2022-07-29T11:52:58;10.00;;;3.23;;
3379;SDS011;1703;51.964;7.642;2022-07-29T11:55:26;12.03;;;3.20;;
3379;SDS011;1703;51.964;7.642;2022-07-29T11:57:54;6.87;;;4.03;;
3379;SDS011;1703;51.964;7.642;2022-07-29T12:00:26;10.77;;;4.57;;
3379;SDS011;1703;51.964;7.642;2022-07-29T12:02:55;8.30;;;3.40;;
3379;SDS011;1703;51.964;7.642;2022-07-29T12:05:31;10.23;;;5.50;;
3379;SDS011;1703;51.964;7.642;2022-07-29T12:08:07;10.93;;;3.57;;
3379;SDS011;1703;51.964;7.642;2022-07-29T12:10:35;7.23;;;3.70;;
3379;SDS011;1703;51.964;7.642;2022-07-29T12:13:02;8.13;;;3.70;;
3379;SDS011;1703;51.964;7.642;2022-07-29T12:15:31;7.07;;;3.60;;
3379;SDS011;1703;51.964;7.642;2022-07-29T12:17:58;6.53;;;5.93;;
3379;SDS011;1703;51.964;7.642;2022-07-29T12:20:35;5.37;;;3.90;;
3379;SDS011;1703;51.964;7.642;2022-07-29T12:23:04;7.47;;;3.80;;
3379;SDS011;1703;51.964;7.642;2022-07-29T12:25:33;6.47;;;3.57;;
3379;SDS011;1703;51.964;7.642;2022-07-29T12:28:01;11.50;;;4.53;;
3379;SDS011;1703;51.964;7.642;2022-07-29T12:30:38;8.10;;;4.07;;
3379;SDS011;1703;51.964;7.642;2022-07-29T12:33:10;6.93;;;3.93;;
3379;SDS011;1703;51.964;7.642;2022-07-29T12:35:38;4.30;;;3.60;;
3379;SDS011;1703;51.964;7.642;2022-07-29T12:38:05;7.50;;;4.03;;
3379;SDS011;1703;51.964;7.642;2022-07-29T12:40:34;9.17;;;3.30;;
3379;SDS011;1703;51.964;7.642;2022-07-29T12:43:10;5.77;;;4.53;;
3379;SDS011;1703;51.964;7.642;2022-07-29T12:45:45;4.40;;;3.77;;
3379;SDS011;1703;51.964;7.642;2022-07-29T12:48:14;14.63;;;6.20;;
3379;SDS011;1703;51.964;7.642;2022-07-29T12:50:55;5.43;;;3.43;;
3379;SDS011;1703;51.964;7.642;2022-07-29T12:53:23;10.73;;;3.67;;
3379;SDS011;1703;51.964;7.642;2022-07-29T12:55:51;4.63;;;3.50;;
3379;SDS011;1703;51.964;7.642;2022-07-29T12:58:25;7.07;;;4.80;;
3379;SDS011;1703;51.964;7.642;2022-07-29T13:01:05;15.13;;;4.87;;
3379;SDS011;1703;51.964;7.642;2022-07-29T13:03:44;15.93;;;4.70;;
3379;SDS011;1703;51.964;7.642;2022-07-29T13:06:27;6.10;;;3.40;;
3379;SDS011;1703;51.964;7.642;2022-07-29T13:08:59;5.93;;;3.70;;
3379;SDS011;1703;51.964;7.642;2022-07-29T13:11:27;4.43;;;4.03;;
3379;SDS011;1703;51.964;7.642;2022-07-29T13:13:55;5.37;;;3.27;;
3379;SDS011;1703;51.964;7.642;2022-07-29T13:16:23;11.77;;;3.67;;
3379;SDS011;1703;51.964;7.642;2022-07-29T13:19:02;5.10;;;3.33;;
3379;SDS011;1703;51.964;7.642;2022-07-29T13:21:31;10.90;;;4.10;;
3379;SDS011;1703;51.964;7.642;2022-07-29T13:23:58;8.10;;;3.90;;
3379;SDS011;1703;51.964;7.642;2022-07-29T13:26:24;11.43;;;4.07;;
3379;SDS011;1703;51.964;7.642;2022-07-29T13:28:51;7.90;;;3.73;;
3379;SDS011;1703;51.964;7.642;2022-07-29T13:31:18;6.80;;;3.30;;
3379;SDS011;1703;51.964;7.642;2022-07-29T13:33:46;6.73;;;4.00;;
3379;SDS011;1703;51.964;7.642;2022-07-29T13:36:13;4.63;;;3.57;;
3379;SDS011;1703;51.964;7.642;2022-07-29T13:38:40;5.37;;;3.00;;
3379;SDS011;1703;51.964;7.642;2022-07-29T13:41:07;3.80;;;3.27;;
3379;SDS011;1703;51.964;7.642;2022-07-29T13:43:34;7.00;;;3.50;;
3379;SDS011;1703;51.964;7.642;2022-07-29T13:46:01;8.23;;;3.97;;
3379;SDS011;1703;51.964;7.642;2022-07-29T13:48:27;4.87;;;3.03;;
3379;SDS011;1703;51.964;7.642;2022-07-29T13:50:56;5.67;;;3.80;;
3379;SDS011;1703;51.964;7.642;2022-07-29T13:53:23;3.13;;;2.60;;
3379;SDS011;1703;51.964;7.642;2022-07-29T13:55:49;6.63;;;3.43;;
3379;SDS011;1703;51.964;7.642;2022-07-29T13:58:16;9.33;;;3.97;;
3379;SDS011;1703;51.964;7.642;2022-07-29T14:00:43;12.37;;;4.50;;
3379;SDS011;1703;51.964;7.642;2022-07-29T14:03:11;5.40;;;3.97;;
3379;SDS011;1703;51.964;7.642;2022-07-29T14:05:38;6.00;;;3.43;;
3379;SDS011;1703;51.964;7.642;2022-07-29T14:08:06;3.77;;;2.60;;
3379;SDS011;1703;51.964;7.642;2022-07-29T14:10:33;4.27;;;2.97;;
3379;SDS011;1703;51.964;7.642;2022-07-29T14:13:00;6.00;;;3.03;;
3379;SDS011;1703;51.964;7.642;2022-07-29T14:15:27;5.90;;;3.40;;
3379;SDS011;1703;51.964;7.642;2022-07-29T14:17:53;8.90;;;3.20;;
3379;SDS011;1703;51.964;7.642;2022-07-29T14:20:20;5.03;;;2.87;;
3379;SDS011;1703;51.964;7.642;2022-07-29T14:22:47;8.50;;;3.20;;
3379;SDS011;1703;51.964;7.642;2022-07-29T14:25:15;6.60;;;3.20;;
3379;SDS011;1703;51.964;7.642;2022-07-29T14:27:42;8.00;;;3.07;;
3379;SDS011;1703;51.964;7.642;2022-07-29T14:30:09;4.03;;;2.70;;
3379;SDS011;1703;51.964;7.642;2022-07-29T14:32:36;9.07;;;3.70;;
3379;SDS011;1703;51.964;7.642;2022-07-29T14:35:03;4.23;;;2.80;;
3379;SDS011;1703;51.964;7.642;2022-07-29T14:37:31;6.53;;;2.80;;
3379;SDS011;1703;51.964;7.642;2022-07-29T14:39:59;3.83;;;2.43;;
3379;SDS011;1703;51.964;7.642;2022-07-29T14:42:29;4.13;;;2.50;;
3379;SDS011;1703;51.964;7.642;2022-07-29T14:44:57;9.13;;;2.47;;
3379;SDS011;1703;51.964;7.642;2022-07-29T14:47:24;4.30;;;2.63;;
3379;SDS011;1703;51.964;7.642;2022-07-29T14:49:51;2.17;;;2.07;;
3379;SDS011;1703;51.964;7.642;2022-07-29T14:52:17;6.07;;;2.60;;
3379;SDS011;1703;51.964;7.642;2022-07-29T14:54:44;4.53;;;2.60;;
3379;SDS011;1703;51.964;7.642;2022-07-29T14:57:11;4.13;;;2.53;;
3379;SDS011;1703;51.964;7.642;2022-07-29T14:59:39;5.93;;;3.00;;
3379;SDS011;1703;51.964;7.642;2022-07-29T15:02:06;8.73;;;2.83;;
3379;SDS011;1703;51.964;7.642;2022-07-29T15:04:33;8.93;;;2.87;;
3379;SDS011;1703;51.964;7.642;2022-07-29T15:07:00;3.70;;;2.40;;
3379;SDS011;1703;51.964;7.642;2022-07-29T15:09:27;5.67;;;2.67;;
3379;SDS011;1703;51.964;7.642;2022-07-29T15:11:54;6.60;;;2.60;;
3379;SDS011;1703;51.964;7.642;2022-07-29T15:14:20;4.10;;;2.33;;
3379;SDS011;1703;51.964;7.642;2022-07-29T15:16:49;3.30;;;2.90;;
3379;SDS011;1703;51.964;7.642;2022-07-29T15:19:15;6.80;;;2.57;;
3379;SDS011;1703;51.964;7.642;2022-07-29T15:21:42;8.07;;;2.03;;
3379;SDS011;1703;51.964;7.642;2022-07-29T15:24:09;5.27;;;2.77;;
3379;SDS011;1703;51.964;7.642;2022-07-29T15:26:36;3.47;;;2.43;;
3379;SDS011;1703;51.964;7.642;2022-07-29T15:29:02;4.17;;;2.97;;
3379;SDS011;1703;51.964;7.642;2022-07-29T15:31:29;5.47;;;2.93;;
3379;SDS011;1703;51.964;7.642;2022-07-29T15:33:57;5.33;;;2.73;;
3379;SDS011;1703;51.964;7.642;2022-07-29T15:36:24;3.77;;;1.77;;
3379;SDS011;1703;51.964;7.642;2022-07-29T15:38:51;5.50;;;2.60;;
3379;SDS011;1703;51.964;7.642;2022-07-29T15:41:19;3.93;;;2.67;;
3379;SDS011;1703;51.964;7.642;2022-07-29T15:43:47;3.10;;;1.87;;
3379;SDS011;1703;51.964;7.642;2022-07-29T15:46:16;5.90;;;4.73;;
3379;SDS011;1703;51.964;7.642;2022-07-29T15:49:03;5.03;;;3.30;;
3379;SDS011;1703;51.964;7.642;2022-07-29T15:51:30;5.47;;;2.60;;